sensor_id;sensor_type;location;lat;lon;timestamp;pressure;altitude;pressure_sealevel;temperature;humidity
6464;BME280;3265;42.694;23.282;2023-05-22T00:02:06;71982.94;;;-143.21;77.47
6464;BME280;3265;42.694;23.282;2023-05-22T00:04:33;71977.00;;;-143.21;77.75
6464;BME280;3265;42.694;23.282;2023-05-22T00:07:00;71969.06;;;-143.21;77.27
6464;BME280;3265;42.694;23.282;2023-05-22T00:09:28;71978.97;;;-143.21;77.27
6464;BME280;3265;42.694;23.282;2023-05-22T00:11:54;71984.94;;;-143.21;77.32
6464;BME280;3265;42.694;23.282;2023-05-22T00:14:21;71977.00;;;-143.21;76.99
6464;BME280;3265;42.694;23.282;2023-05-22T00:16:50;71971.06;;;-143.21;76.92
6464;BME280;3265;42.694;23.282;2023-05-22T00:19:17;71971.06;;;-143.21;77.06
6464;BME280;3265;42.694;23.282;2023-05-22T00:21:47;71959.16;;;-143.21;76.43
6464;BME280;3265;42.694;23.282;2023-05-22T00:24:15;71947.25;;;-143.21;76.07
6464;BME280;3265;42.694;23.282;2023-05-22T00:26:42;71951.22;;;-143.21;76.25
6464;BME280;3265;42.694;23.282;2023-05-22T00:29:09;71943.28;;;-143.21;76.08
6464;BME280;3265;42.694;23.282;2023-05-22T00:31:36;71941.31;;;-143.21;76.27
6464;BME280;3265;42.694;23.282;2023-05-22T00:34:04;71935.34;;;-143.21;75.79
6464;BME280;3265;42.694;23.282;2023-05-22T00:36:31;71935.34;;;-143.21;75.41
6464;BME280;3265;42.694;23.282;2023-05-22T00:38:58;71937.34;;;-143.21;75.44
6464;BME280;3265;42.694;23.282;2023-05-22T00:41:25;71935.34;;;-143.21;75.42
6464;BME280;3265;42.694;23.282;2023-05-22T00:43:51;71937.34;;;-143.21;75.43
6464;BME280;3265;42.694;23.282;2023-05-22T00:46:19;71935.34;;;-143.21;74.74
6464;BME280;3265;42.694;23.282;2023-05-22T00:48:47;71943.28;;;-143.21;75.20
6464;BME280;3265;42.694;23.282;2023-05-22T00:51:15;71963.13;;;-143.21;75.69
6464;BME280;3265;42.694;23.282;2023-05-22T00:53:42;71959.16;;;-143.21;75.59
6464;BME280;3265;42.694;23.282;2023-05-22T00:56:10;71961.13;;;-143.21;76.10
6464;BME280;3265;42.694;23.282;2023-05-22T00:58:39;71957.16;;;-143.21;75.48
6464;BME280;3265;42.694;23.282;2023-05-22T01:01:06;71955.19;;;-143.21;75.83
6464;BME280;3265;42.694;23.282;2023-05-22T01:03:34;71961.13;;;-143.21;75.58
6464;BME280;3265;42.694;23.282;2023-05-22T01:06:02;71969.06;;;-143.21;76.19
6464;BME280;3265;42.694;23.282;2023-05-22T01:08:30;71963.13;;;-143.21;76.37
6464;BME280;3265;42.694;23.282;2023-05-22T01:11:01;71963.13;;;-143.21;76.25
6464;BME280;3265;42.694;23.282;2023-05-22T01:13:35;71969.06;;;-143.21;76.09
6464;BME280;3265;42.694;23.282;2023-05-22T01:16:09;71967.09;;;-143.21;76.47
6464;BME280;3265;42.694;23.282;2023-05-22T01:18:42;71975.00;;;-143.21;76.63
6464;BME280;3265;42.694;23.282;2023-05-22T01:21:15;71980.97;;;-143.21;76.70
6464;BME280;3265;42.694;23.282;2023-05-22T01:27:23;71978.97;;;-143.21;77.53
6464;BME280;3265;42.694;23.282;2023-05-22T01:30:05;71980.97;;;-143.21;77.41
6464;BME280;3265;42.694;23.282;2023-05-22T01:32:40;71980.97;;;-143.21;77.18
6464;BME280;3265;42.694;23.282;2023-05-22T01:35:10;71975.00;;;-143.21;76.83
6464;BME280;3265;42.694;23.282;2023-05-22T01:37:38;71978.97;;;-143.21;76.88
6464;BME280;3265;42.694;23.282;2023-05-22T01:40:06;71978.97;;;-143.21;76.77
6464;BME280;3265;42.694;23.282;2023-05-22T01:42:33;71977.00;;;-143.21;76.67
6464;BME280;3265;42.694;23.282;2023-05-22T01:45:00;71982.94;;;-143.21;76.91
6464;BME280;3265;42.694;23.282;2023-05-22T01:47:27;71992.88;;;-143.21;77.35
6464;BME280;3265;42.694;23.282;2023-05-22T01:49:55;71990.88;;;-143.21;77.85
6464;BME280;3265;42.694;23.282;2023-05-22T01:52:26;71988.91;;;-143.21;77.71
6464;BME280;3265;42.694;23.282;2023-05-22T01:55:02;71998.81;;;-143.21;77.71
6464;BME280;3265;42.694;23.282;2023-05-22T01:57:36;72006.75;;;-143.21;78.35
6464;BME280;3265;42.694;23.282;2023-05-22T02:00:07;72002.78;;;-143.21;78.38
6464;BME280;3265;42.694;23.282;2023-05-22T02:02:35;72018.63;;;-143.21;79.37
6464;BME280;3265;42.694;23.282;2023-05-22T02:05:05;72014.69;;;-143.21;79.63
6464;BME280;3265;42.694;23.282;2023-05-22T02:07:37;72018.63;;;-143.21;79.53
6464;BME280;3265;42.694;23.282;2023-05-22T02:10:05;72028.56;;;-143.21;79.16
6464;BME280;3265;42.694;23.282;2023-05-22T02:12:33;72024.59;;;-143.21;79.34
6464;BME280;3265;42.694;23.282;2023-05-22T02:15:00;72026.56;;;-143.21;79.17
6464;BME280;3265;42.694;23.282;2023-05-22T02:17:27;72042.44;;;-143.21;79.86
6464;BME280;3265;42.694;23.282;2023-05-22T02:19:54;72046.41;;;-143.21;79.95
6464;BME280;3265;42.694;23.282;2023-05-22T02:22:22;72058.31;;;-143.21;80.42
6464;BME280;3265;42.694;23.282;2023-05-22T02:24:49;72066.22;;;-143.21;80.87
6464;BME280;3265;42.694;23.282;2023-05-22T02:27:16;72074.16;;;-143.21;81.34
6464;BME280;3265;42.694;23.282;2023-05-22T02:29:43;72080.13;;;-143.21;81.24
6464;BME280;3265;42.694;23.282;2023-05-22T02:32:10;72084.06;;;-143.21;81.60
6464;BME280;3265;42.694;23.282;2023-05-22T02:34:37;72090.03;;;-143.21;81.83
6464;BME280;3265;42.694;23.282;2023-05-22T02:37:04;72086.06;;;-143.21;81.60
6464;BME280;3265;42.694;23.282;2023-05-22T02:39:32;72094.00;;;-143.21;81.68
6464;BME280;3265;42.694;23.282;2023-05-22T02:41:59;72094.00;;;-143.21;81.63
6464;BME280;3265;42.694;23.282;2023-05-22T02:44:26;72095.97;;;-143.21;81.79
6464;BME280;3265;42.694;23.282;2023-05-22T02:46:53;72094.00;;;-143.21;81.79
6464;BME280;3265;42.694;23.282;2023-05-22T02:49:19;72101.94;;;-143.21;81.83
6464;BME280;3265;42.694;23.282;2023-05-22T02:51:46;72119.78;;;-143.21;81.58
6464;BME280;3265;42.694;23.282;2023-05-22T02:54:14;72123.75;;;-143.21;82.31
6464;BME280;3265;42.694;23.282;2023-05-22T02:56:42;72135.63;;;-143.21;82.94
6464;BME280;3265;42.694;23.282;2023-05-22T02:59:09;72141.59;;;-143.21;83.57
6464;BME280;3265;42.694;23.282;2023-05-22T03:01:36;72147.53;;;-143.21;83.74
6464;BME280;3265;42.694;23.282;2023-05-22T03:04:04;72137.63;;;-143.21;83.47
6464;BME280;3265;42.694;23.282;2023-05-22T03:06:31;72129.69;;;-143.21;83.25
6464;BME280;3265;42.694;23.282;2023-05-22T03:08:59;72137.63;;;-143.21;83.15
6464;BME280;3265;42.694;23.282;2023-05-22T03:11:28;72129.69;;;-143.21;83.20
6464;BME280;3265;42.694;23.282;2023-05-22T03:13:56;72139.59;;;-143.21;83.54
6464;BME280;3265;42.694;23.282;2023-05-22T03:16:23;72143.56;;;-143.21;83.28
6464;BME280;3265;42.694;23.282;2023-05-22T03:18:50;72143.56;;;-143.21;83.52
6464;BME280;3265;42.694;23.282;2023-05-22T03:21:18;72149.53;;;-143.21;83.29
6464;BME280;3265;42.694;23.282;2023-05-22T03:23:46;72151.50;;;-143.21;83.60
6464;BME280;3265;42.694;23.282;2023-05-22T03:26:13;72151.50;;;-143.21;83.56
6464;BME280;3265;42.694;23.282;2023-05-22T03:28:40;72151.50;;;-143.21;83.94
6464;BME280;3265;42.694;23.282;2023-05-22T03:31:08;72147.53;;;-143.21;83.79
6464;BME280;3265;42.694;23.282;2023-05-22T03:33:35;72159.44;;;-143.21;83.55
6464;BME280;3265;42.694;23.282;2023-05-22T03:36:02;72173.31;;;-143.21;83.41
6464;BME280;3265;42.694;23.282;2023-05-22T03:38:41;72183.22;;;-143.21;83.15
6464;BME280;3265;42.694;23.282;2023-05-22T03:41:07;72191.16;;;-143.21;83.57
6464;BME280;3265;42.694;23.282;2023-05-22T03:43:34;72203.06;;;-143.21;84.43
6464;BME280;3265;42.694;23.282;2023-05-22T03:46:01;72201.09;;;-143.21;84.93
6464;BME280;3265;42.694;23.282;2023-05-22T03:48:31;72201.09;;;-143.21;85.20
6464;BME280;3265;42.694;23.282;2023-05-22T03:50:58;72199.09;;;-143.21;85.35
6464;BME280;3265;42.694;23.282;2023-05-22T03:53:24;72205.03;;;-143.21;85.35
6464;BME280;3265;42.694;23.282;2023-05-22T03:55:51;72193.16;;;-143.21;85.38
6464;BME280;3265;42.694;23.282;2023-05-22T03:58:18;72189.19;;;-143.21;85.35
6464;BME280;3265;42.694;23.282;2023-05-22T04:00:45;72185.22;;;-143.21;85.51
6464;BME280;3265;42.694;23.282;2023-05-22T04:03:12;72183.22;;;-143.21;85.36
6464;BME280;3265;42.694;23.282;2023-05-22T04:05:40;72173.31;;;-143.21;85.63
6464;BME280;3265;42.694;23.282;2023-05-22T04:08:07;72165.38;;;-143.21;85.35
6464;BME280;3265;42.694;23.282;2023-05-22T04:10:34;72155.47;;;-143.21;85.33
6464;BME280;3265;42.694;23.282;2023-05-22T04:13:03;72151.50;;;-143.21;85.13
6464;BME280;3265;42.694;23.282;2023-05-22T04:15:29;72153.47;;;-143.21;85.14
6464;BME280;3265;42.694;23.282;2023-05-22T04:17:59;72151.50;;;-143.21;85.56
6464;BME280;3265;42.694;23.282;2023-05-22T04:20:26;72145.56;;;-143.21;85.64
6464;BME280;3265;42.694;23.282;2023-05-22T04:22:54;72135.63;;;-143.21;85.33
6464;BME280;3265;42.694;23.282;2023-05-22T04:25:21;72125.72;;;-143.21;85.16
6464;BME280;3265;42.694;23.282;2023-05-22T04:27:47;72127.72;;;-143.21;85.29
6464;BME280;3265;42.694;23.282;2023-05-22T04:30:15;72123.75;;;-143.21;85.16
6464;BME280;3265;42.694;23.282;2023-05-22T04:32:43;72125.72;;;-143.21;85.14
6464;BME280;3265;42.694;23.282;2023-05-22T04:35:10;72145.56;;;-143.21;85.00
6464;BME280;3265;42.694;23.282;2023-05-22T04:37:37;72143.56;;;-143.21;84.74
6464;BME280;3265;42.694;23.282;2023-05-22T04:40:08;72155.47;;;-143.21;85.27
6464;BME280;3265;42.694;23.282;2023-05-22T04:42:36;72155.47;;;-143.21;85.30
6464;BME280;3265;42.694;23.282;2023-05-22T04:45:04;72151.50;;;-143.21;85.88
6464;BME280;3265;42.694;23.282;2023-05-22T04:47:31;72147.53;;;-143.21;86.12
6464;BME280;3265;42.694;23.282;2023-05-22T04:49:57;72135.63;;;-143.21;85.91
6464;BME280;3265;42.694;23.282;2023-05-22T04:52:26;72121.75;;;-143.21;85.46
6464;BME280;3265;42.694;23.282;2023-05-22T04:54:53;72105.91;;;-143.21;84.20
6464;BME280;3265;42.694;23.282;2023-05-22T04:57:21;72097.97;;;-143.21;82.35
6464;BME280;3265;42.694;23.282;2023-05-22T04:59:50;72082.09;;;-143.21;82.04
6464;BME280;3265;42.694;23.282;2023-05-22T05:02:17;72080.13;;;-143.21;81.68
6464;BME280;3265;42.694;23.282;2023-05-22T05:04:44;72086.06;;;-143.21;82.33
6464;BME280;3265;42.694;23.282;2023-05-22T05:07:11;72074.16;;;-143.21;81.86
6464;BME280;3265;42.694;23.282;2023-05-22T05:09:43;72066.22;;;-143.21;81.54
6464;BME280;3265;42.694;23.282;2023-05-22T05:12:09;72046.41;;;-143.21;80.27
6464;BME280;3265;42.694;23.282;2023-05-22T05:14:38;72054.34;;;-143.21;80.35
6464;BME280;3265;42.694;23.282;2023-05-22T05:17:04;72046.41;;;-143.21;80.75
6464;BME280;3265;42.694;23.282;2023-05-22T05:19:31;72046.41;;;-143.21;81.34
6464;BME280;3265;42.694;23.282;2023-05-22T05:21:58;72036.50;;;-143.21;81.20
6464;BME280;3265;42.694;23.282;2023-05-22T05:24:25;72028.56;;;-143.21;81.37
6464;BME280;3265;42.694;23.282;2023-05-22T05:26:52;72014.69;;;-143.21;80.42
6464;BME280;3265;42.694;23.282;2023-05-22T05:29:19;72002.78;;;-143.21;79.95
6464;BME280;3265;42.694;23.282;2023-05-22T05:31:47;71996.81;;;-143.21;79.61
6464;BME280;3265;42.694;23.282;2023-05-22T05:34:14;71990.88;;;-143.21;79.50
6464;BME280;3265;42.694;23.282;2023-05-22T05:36:41;71982.94;;;-143.21;79.30
6464;BME280;3265;42.694;23.282;2023-05-22T05:39:08;71978.97;;;-143.21;78.51
6464;BME280;3265;42.694;23.282;2023-05-22T05:41:35;71967.09;;;-143.21;78.36
6464;BME280;3265;42.694;23.282;2023-05-22T05:44:02;71971.06;;;-143.21;78.16
6464;BME280;3265;42.694;23.282;2023-05-22T05:46:28;71967.09;;;-143.21;77.79
6464;BME280;3265;42.694;23.282;2023-05-22T05:48:57;71957.16;;;-143.21;75.80
6464;BME280;3265;42.694;23.282;2023-05-22T05:51:24;71949.25;;;-143.21;75.30
6464;BME280;3265;42.694;23.282;2023-05-22T05:53:51;71953.19;;;-143.21;75.34
6464;BME280;3265;42.694;23.282;2023-05-22T05:56:17;71941.31;;;-143.21;74.62
6464;BME280;3265;42.694;23.282;2023-05-22T05:58:45;71935.34;;;-143.21;73.54
6464;BME280;3265;42.694;23.282;2023-05-22T06:01:12;71937.34;;;-143.21;72.65
6464;BME280;3265;42.694;23.282;2023-05-22T06:03:39;71923.47;;;-143.21;72.20
6464;BME280;3265;42.694;23.282;2023-05-22T06:06:07;71907.59;;;-143.21;70.63
6464;BME280;3265;42.694;23.282;2023-05-22T06:08:35;71907.59;;;-143.21;70.13
6464;BME280;3265;42.694;23.282;2023-05-22T06:11:02;71899.66;;;-143.21;69.77
6464;BME280;3265;42.694;23.282;2023-05-22T06:13:29;71889.75;;;-143.21;68.58
6464;BME280;3265;42.694;23.282;2023-05-22T06:15:56;71891.72;;;-143.21;68.95
6464;BME280;3265;42.694;23.282;2023-05-22T06:18:23;71883.81;;;-143.21;68.87
6464;BME280;3265;42.694;23.282;2023-05-22T06:20:50;71879.84;;;-143.21;68.84
6464;BME280;3265;42.694;23.282;2023-05-22T06:23:19;71875.88;;;-143.21;68.79
6464;BME280;3265;42.694;23.282;2023-05-22T06:25:45;71858.03;;;-143.21;67.92
6464;BME280;3265;42.694;23.282;2023-05-22T06:28:13;71856.03;;;-143.21;68.20
6464;BME280;3265;42.694;23.282;2023-05-22T06:30:39;71850.09;;;-143.21;67.58
6464;BME280;3265;42.694;23.282;2023-05-22T06:33:06;71840.19;;;-143.21;67.79
6464;BME280;3265;42.694;23.282;2023-05-22T06:35:33;71836.22;;;-143.21;67.73
6464;BME280;3265;42.694;23.282;2023-05-22T06:37:59;71828.28;;;-143.21;67.35
6464;BME280;3265;42.694;23.282;2023-05-22T06:40:28;71810.44;;;-143.21;67.43
6464;BME280;3265;42.694;23.282;2023-05-22T06:42:56;71798.53;;;-143.21;66.97
6464;BME280;3265;42.694;23.282;2023-05-22T06:45:23;71784.66;;;-143.21;66.50
6464;BME280;3265;42.694;23.282;2023-05-22T06:47:51;71766.81;;;-143.21;64.54
6464;BME280;3265;42.694;23.282;2023-05-22T06:50:18;71762.84;;;-143.21;63.49
6464;BME280;3265;42.694;23.282;2023-05-22T06:52:45;71754.91;;;-143.21;62.15
6464;BME280;3265;42.694;23.282;2023-05-22T06:55:12;71743.00;;;-143.21;61.65
6464;BME280;3265;42.694;23.282;2023-05-22T06:57:47;71729.13;;;-143.21;62.20
6464;BME280;3265;42.694;23.282;2023-05-22T07:00:17;71723.19;;;-143.21;62.79
6464;BME280;3265;42.694;23.282;2023-05-22T07:03:04;71713.28;;;-143.21;63.15
6464;BME280;3265;42.694;23.282;2023-05-22T07:05:54;71693.44;;;-143.21;63.49
6464;BME280;3265;42.694;23.282;2023-05-22T07:08:22;71677.59;;;-143.21;63.80
6464;BME280;3265;42.694;23.282;2023-05-22T07:10:49;71669.66;;;-143.21;62.86
6464;BME280;3265;42.694;23.282;2023-05-22T07:13:17;71657.75;;;-143.21;62.21
6464;BME280;3265;42.694;23.282;2023-05-22T07:15:44;71645.88;;;-143.21;61.29
6464;BME280;3265;42.694;23.282;2023-05-22T07:18:11;71631.97;;;-143.21;61.72
6464;BME280;3265;42.694;23.282;2023-05-22T07:20:39;71626.03;;;-143.21;61.89
6464;BME280;3265;42.694;23.282;2023-05-22T07:23:06;71610.16;;;-143.21;60.73
6464;BME280;3265;42.694;23.282;2023-05-22T07:25:33;71608.19;;;-143.21;60.71
6464;BME280;3265;42.694;23.282;2023-05-22T07:28:00;71596.28;;;-143.21;59.55
6464;BME280;3265;42.694;23.282;2023-05-22T07:30:34;71594.31;;;-143.21;59.45
6464;BME280;3265;42.694;23.282;2023-05-22T07:33:01;71580.44;;;-143.21;59.20
6464;BME280;3265;42.694;23.282;2023-05-22T07:35:28;71578.44;;;-143.21;58.61
6464;BME280;3265;42.694;23.282;2023-05-22T07:37:55;71566.56;;;-143.21;58.67
6464;BME280;3265;42.694;23.282;2023-05-22T07:40:22;71550.69;;;-143.21;58.04
6464;BME280;3265;42.694;23.282;2023-05-22T07:42:49;71542.75;;;-143.21;57.34
6464;BME280;3265;42.694;23.282;2023-05-22T07:45:16;71532.84;;;-143.21;56.83
6464;BME280;3265;42.694;23.282;2023-05-22T07:47:44;71520.94;;;-143.21;56.63
6464;BME280;3265;42.694;23.282;2023-05-22T07:50:11;71526.91;;;-143.21;55.87
6464;BME280;3265;42.694;23.282;2023-05-22T07:56:09;71495.19;;;-143.21;56.38
6464;BME280;3265;42.694;23.282;2023-05-22T07:58:35;71493.19;;;-143.21;55.85
6464;BME280;3265;42.694;23.282;2023-05-22T08:01:04;71483.28;;;-143.21;56.84
6464;BME280;3265;42.694;23.282;2023-05-22T08:03:32;71479.31;;;-143.21;56.50
6464;BME280;3265;42.694;23.282;2023-05-22T08:05:59;71473.38;;;-143.21;55.75
6464;BME280;3265;42.694;23.282;2023-05-22T08:08:26;71451.56;;;-143.21;55.04
6464;BME280;3265;42.694;23.282;2023-05-22T08:10:53;71451.56;;;-143.21;54.33
6464;BME280;3265;42.694;23.282;2023-05-22T08:13:21;71439.66;;;-143.21;54.86
6464;BME280;3265;42.694;23.282;2023-05-22T08:15:48;71433.72;;;-143.21;53.96
6464;BME280;3265;42.694;23.282;2023-05-22T08:18:14;71425.78;;;-143.21;54.68
6464;BME280;3265;42.694;23.282;2023-05-22T08:20:43;71419.84;;;-143.21;53.09
6464;BME280;3265;42.694;23.282;2023-05-22T08:23:10;71407.94;;;-143.21;53.54
6464;BME280;3265;42.694;23.282;2023-05-22T08:25:37;71392.06;;;-143.21;52.37
6464;BME280;3265;42.694;23.282;2023-05-22T08:28:04;71378.19;;;-143.21;52.91
6464;BME280;3265;42.694;23.282;2023-05-22T08:30:31;71378.19;;;-143.21;51.48
6464;BME280;3265;42.694;23.282;2023-05-22T08:32:58;71362.34;;;-143.21;51.48
6464;BME280;3265;42.694;23.282;2023-05-22T08:35:25;71346.47;;;-143.21;51.97
6464;BME280;3265;42.694;23.282;2023-05-22T08:37:53;71338.53;;;-143.21;50.15
6464;BME280;3265;42.694;23.282;2023-05-22T08:40:20;71324.66;;;-143.21;50.92
6464;BME280;3265;42.694;23.282;2023-05-22T08:42:48;71312.78;;;-143.21;50.43
6464;BME280;3265;42.694;23.282;2023-05-22T08:45:18;71290.97;;;-143.21;50.81
6464;BME280;3265;42.694;23.282;2023-05-22T08:47:46;71277.09;;;-143.21;50.04
6464;BME280;3265;42.694;23.282;2023-05-22T08:50:17;71257.25;;;-143.21;49.49
6464;BME280;3265;42.694;23.282;2023-05-22T08:52:49;71253.28;;;-143.21;48.06
6464;BME280;3265;42.694;23.282;2023-05-22T08:55:18;71243.38;;;-143.21;47.20
6464;BME280;3265;42.694;23.282;2023-05-22T08:57:45;71233.47;;;-143.21;45.29
6464;BME280;3265;42.694;23.282;2023-05-22T09:00:12;71229.50;;;-143.21;45.96
6464;BME280;3265;42.694;23.282;2023-05-22T09:02:40;71205.72;;;-143.21;45.73
6464;BME280;3265;42.694;23.282;2023-05-22T09:05:08;71187.88;;;-143.21;45.24
6464;BME280;3265;42.694;23.282;2023-05-22T09:07:35;71191.84;;;-143.21;45.82
6464;BME280;3265;42.694;23.282;2023-05-22T09:10:03;71187.88;;;-143.21;46.49
6464;BME280;3265;42.694;23.282;2023-05-22T09:12:33;71174.00;;;-143.21;45.70
6464;BME280;3265;42.694;23.282;2023-05-22T09:15:07;71172.00;;;-143.21;46.69
6464;BME280;3265;42.694;23.282;2023-05-22T09:17:34;71166.06;;;-143.21;45.53
6464;BME280;3265;42.694;23.282;2023-05-22T09:20:04;71162.09;;;-143.21;45.03
6464;BME280;3265;42.694;23.282;2023-05-22T09:22:35;71174.00;;;-143.21;43.64
6464;BME280;3265;42.694;23.282;2023-05-22T09:25:04;71177.97;;;-143.21;43.61
6464;BME280;3265;42.694;23.282;2023-05-22T09:27:33;71183.91;;;-143.21;44.43
6464;BME280;3265;42.694;23.282;2023-05-22T09:30:00;71181.94;;;-143.21;44.27
6464;BME280;3265;42.694;23.282;2023-05-22T09:32:28;71183.91;;;-143.21;44.40
6464;BME280;3265;42.694;23.282;2023-05-22T09:35:01;71181.94;;;-143.21;44.93
6464;BME280;3265;42.694;23.282;2023-05-22T09:37:32;71181.94;;;-143.21;46.00
6464;BME280;3265;42.694;23.282;2023-05-22T09:40:03;71175.97;;;-143.21;46.13
6464;BME280;3265;42.694;23.282;2023-05-22T09:42:33;71168.06;;;-143.21;46.55
6464;BME280;3265;42.694;23.282;2023-05-22T09:45:04;71172.00;;;-143.21;46.79
6464;BME280;3265;42.694;23.282;2023-05-22T09:47:31;71179.94;;;-143.21;49.59
6464;BME280;3265;42.694;23.282;2023-05-22T09:50:00;71205.72;;;-143.21;46.92
6464;BME280;3265;42.694;23.282;2023-05-22T09:52:32;71205.72;;;-143.21;47.79
6464;BME280;3265;42.694;23.282;2023-05-22T09:55:01;71227.53;;;-143.21;47.29
6464;BME280;3265;42.694;23.282;2023-05-22T09:57:30;71235.44;;;-143.21;51.96
6464;BME280;3265;42.694;23.282;2023-05-22T09:59:59;71225.53;;;-143.21;48.38
6464;BME280;3265;42.694;23.282;2023-05-22T10:02:34;71247.34;;;-143.21;49.52
6464;BME280;3265;42.694;23.282;2023-05-22T10:05:04;71275.09;;;-143.21;49.47
6464;BME280;3265;42.694;23.282;2023-05-22T10:07:35;71281.06;;;-143.21;50.18
6464;BME280;3265;42.694;23.282;2023-05-22T10:10:05;71285.03;;;-143.21;50.26
6464;BME280;3265;42.694;23.282;2023-05-22T10:12:36;71318.72;;;-143.21;49.50
6464;BME280;3265;42.694;23.282;2023-05-22T10:15:10;71332.59;;;-143.21;49.85
6464;BME280;3265;42.694;23.282;2023-05-22T10:17:38;71318.72;;;-143.21;50.86
6464;BME280;3265;42.694;23.282;2023-05-22T10:20:07;71332.59;;;-143.21;50.95
6464;BME280;3265;42.694;23.282;2023-05-22T10:22:35;71346.47;;;-143.21;50.88
6464;BME280;3265;42.694;23.282;2023-05-22T10:25:04;71352.44;;;-143.21;50.60
6464;BME280;3265;42.694;23.282;2023-05-22T10:27:31;71338.53;;;-143.21;51.10
6464;BME280;3265;42.694;23.282;2023-05-22T10:30:05;71346.47;;;-143.21;50.45
6464;BME280;3265;42.694;23.282;2023-05-22T10:32:40;71356.38;;;-143.21;50.26
6464;BME280;3265;42.694;23.282;2023-05-22T10:35:17;71376.22;;;-143.21;50.60
6464;BME280;3265;42.694;23.282;2023-05-22T10:37:50;71378.19;;;-143.21;51.12
6464;BME280;3265;42.694;23.282;2023-05-22T10:40:24;71392.06;;;-143.21;52.28
6464;BME280;3265;42.694;23.282;2023-05-22T10:43:00;71400.00;;;-143.21;52.49
6464;BME280;3265;42.694;23.282;2023-05-22T10:45:28;71419.84;;;-143.21;52.77
6464;BME280;3265;42.694;23.282;2023-05-22T10:48:04;71423.78;;;-143.21;54.59
6464;BME280;3265;42.694;23.282;2023-05-22T10:50:31;71429.75;;;-143.21;56.60
6464;BME280;3265;42.694;23.282;2023-05-22T10:53:17;71433.72;;;-143.21;58.66
6464;BME280;3265;42.694;23.282;2023-05-22T10:55:46;71433.72;;;-143.21;61.19
6464;BME280;3265;42.694;23.282;2023-05-22T10:58:14;71429.75;;;-143.21;61.30
6464;BME280;3265;42.694;23.282;2023-05-22T11:00:40;71423.78;;;-143.21;62.81
6464;BME280;3265;42.694;23.282;2023-05-22T11:03:09;71421.81;;;-143.21;62.36
6464;BME280;3265;42.694;23.282;2023-05-22T11:05:36;71421.81;;;-143.21;59.45
6464;BME280;3265;42.694;23.282;2023-05-22T11:08:11;71429.75;;;-143.21;59.85
6464;BME280;3265;42.694;23.282;2023-05-22T11:10:53;71427.75;;;-143.21;59.31
6464;BME280;3265;42.694;23.282;2023-05-22T11:13:20;71405.94;;;-143.21;58.62
6464;BME280;3265;42.694;23.282;2023-05-22T11:15:50;71382.16;;;-143.21;58.36
6464;BME280;3265;42.694;23.282;2023-05-22T11:18:21;71344.50;;;-143.21;58.33
6464;BME280;3265;42.694;23.282;2023-05-22T11:20:48;71316.75;;;-143.21;57.72
6464;BME280;3265;42.694;23.282;2023-05-22T11:23:17;71279.06;;;-143.21;57.42
6464;BME280;3265;42.694;23.282;2023-05-22T11:25:44;71265.19;;;-143.21;56.64
6464;BME280;3265;42.694;23.282;2023-05-22T11:28:11;71267.19;;;-143.21;56.87
6464;BME280;3265;42.694;23.282;2023-05-22T11:30:38;71300.88;;;-143.21;56.05
6464;BME280;3265;42.694;23.282;2023-05-22T11:33:05;71330.63;;;-143.21;55.85
6464;BME280;3265;42.694;23.282;2023-05-22T11:35:34;71364.31;;;-143.21;56.91
6464;BME280;3265;42.694;23.282;2023-05-22T11:38:03;71433.72;;;-143.21;59.46
6464;BME280;3265;42.694;23.282;2023-05-22T11:40:30;71473.38;;;-143.21;65.18
6464;BME280;3265;42.694;23.282;2023-05-22T11:42:57;71513.03;;;-143.21;64.62
6464;BME280;3265;42.694;23.282;2023-05-22T11:45:24;71558.63;;;-143.21;65.12
6464;BME280;3265;42.694;23.282;2023-05-22T11:47:52;71610.16;;;-143.21;64.82
6464;BME280;3265;42.694;23.282;2023-05-22T11:50:19;71614.13;;;-143.21;67.59
6464;BME280;3265;42.694;23.282;2023-05-22T11:52:47;71637.94;;;-143.21;67.86
6464;BME280;3265;42.694;23.282;2023-05-22T11:55:15;71673.63;;;-143.21;68.07
6464;BME280;3265;42.694;23.282;2023-05-22T11:57:42;71695.44;;;-143.21;66.16
6464;BME280;3265;42.694;23.282;2023-05-22T12:00:10;71725.16;;;-143.21;67.00
6464;BME280;3265;42.694;23.282;2023-05-22T12:02:37;71729.13;;;-143.21;66.47
6464;BME280;3265;42.694;23.282;2023-05-22T12:05:05;71731.13;;;-143.21;67.48
6464;BME280;3265;42.694;23.282;2023-05-22T12:07:34;71725.16;;;-143.21;67.61
6464;BME280;3265;42.694;23.282;2023-05-22T12:10:03;71711.28;;;-143.21;65.03
6464;BME280;3265;42.694;23.282;2023-05-22T12:12:31;71703.34;;;-143.21;64.88
6464;BME280;3265;42.694;23.282;2023-05-22T12:14:58;71697.41;;;-143.21;65.39
6464;BME280;3265;42.694;23.282;2023-05-22T12:17:27;71691.47;;;-143.21;64.08
6464;BME280;3265;42.694;23.282;2023-05-22T12:19:54;71701.38;;;-143.21;64.88
6464;BME280;3265;42.694;23.282;2023-05-22T12:22:21;71703.34;;;-143.21;65.19
6464;BME280;3265;42.694;23.282;2023-05-22T12:24:51;71709.31;;;-143.21;66.42
6464;BME280;3265;42.694;23.282;2023-05-22T12:27:19;71697.41;;;-143.21;68.56
6464;BME280;3265;42.694;23.282;2023-05-22T12:29:46;71687.50;;;-143.21;68.69
6464;BME280;3265;42.694;23.282;2023-05-22T12:32:13;71689.47;;;-143.21;67.72
6464;BME280;3265;42.694;23.282;2023-05-22T12:34:43;71675.59;;;-143.21;66.90
6464;BME280;3265;42.694;23.282;2023-05-22T12:37:20;71645.88;;;-143.21;68.50
6464;BME280;3265;42.694;23.282;2023-05-22T12:39:53;71620.09;;;-143.21;68.46
6464;BME280;3265;42.694;23.282;2023-05-22T12:42:22;71598.28;;;-143.21;67.19
6464;BME280;3265;42.694;23.282;2023-05-22T12:44:51;71582.41;;;-143.21;67.11
6464;BME280;3265;42.694;23.282;2023-05-22T12:47:18;71564.56;;;-143.21;65.06
6464;BME280;3265;42.694;23.282;2023-05-22T12:49:45;71546.72;;;-143.21;63.43
6464;BME280;3265;42.694;23.282;2023-05-22T12:52:11;71538.78;;;-143.21;62.46
6464;BME280;3265;42.694;23.282;2023-05-22T12:54:38;71534.81;;;-143.21;63.61
6464;BME280;3265;42.694;23.282;2023-05-22T12:57:05;71534.81;;;-143.21;63.44
6464;BME280;3265;42.694;23.282;2023-05-22T12:59:34;71528.88;;;-143.21;63.80
6464;BME280;3265;42.694;23.282;2023-05-22T13:02:02;71538.78;;;-143.21;64.45
6464;BME280;3265;42.694;23.282;2023-05-22T13:04:29;71534.81;;;-143.21;65.06